sensor_id;sensor_type;location;lat;lon;timestamp;temperature;humidity
14798;DHT22;7490;63.708;20.368;2023-11-19T00:02:08;-8.50;99.90
14798;DHT22;7490;63.708;20.368;2023-11-19T00:04:38;-8.50;99.90
14798;DHT22;7490;63.708;20.368;2023-11-19T00:07:06;-8.50;99.90
14798;DHT22;7490;63.708;20.368;2023-11-19T00:09:33;-8.60;99.90
14798;DHT22;7490;63.708;20.368;2023-11-19T00:12:02;-8.60;99.90
14798;DHT22;7490;63.708;20.368;2023-11-19T00:14:30;-8.60;99.90
14798;DHT22;7490;63.708;20.368;2023-11-19T00:16:55;-8.70;99.90
14798;DHT22;7490;63.708;20.368;2023-11-19T00:19:21;-8.70;99.90
14798;DHT22;7490;63.708;20.368;2023-11-19T00:21:47;-8.70;99.90
14798;DHT22;7490;63.708;20.368;2023-11-19T00:24:12;-8.80;99.90
14798;DHT22;7490;63.708;20.368;2023-11-19T00:26:41;-8.80;99.90
14798;DHT22;7490;63.708;20.368;2023-11-19T00:29:07;-8.80;99.90
14798;DHT22;7490;63.708;20.368;2023-11-19T00:31:33;-8.80;99.90
14798;DHT22;7490;63.708;20.368;2023-11-19T00:33:58;-8.80;99.90
14798;DHT22;7490;63.708;20.368;2023-11-19T00:36:24;-8.80;99.90
14798;DHT22;7490;63.708;20.368;2023-11-19T00:38:51;-8.80;99.90
14798;DHT22;7490;63.708;20.368;2023-11-19T00:41:18;-8.70;99.90
14798;DHT22;7490;63.708;20.368;2023-11-19T00:43:44;-8.70;99.90
14798;DHT22;7490;63.708;20.368;2023-11-19T00:46:10;-8.70;99.90
14798;DHT22;7490;63.708;20.368;2023-11-19T00:48:42;-8.70;99.90
14798;DHT22;7490;63.708;20.368;2023-11-19T00:51:07;-8.80;99.90
14798;DHT22;7490;63.708;20.368;2023-11-19T00:53:33;-8.80;99.90
14798;DHT22;7490;63.708;20.368;2023-11-19T00:56:02;-8.80;99.90
14798;DHT22;7490;63.708;20.368;2023-11-19T00:58:27;-8.80;99.90
14798;DHT22;7490;63.708;20.368;2023-11-19T01:00:53;-8.80;99.90
14798;DHT22;7490;63.708;20.368;2023-11-19T01:03:18;-8.80;99.90
14798;DHT22;7490;63.708;20.368;2023-11-19T01:05:44;-8.90;99.90
14798;DHT22;7490;63.708;20.368;2023-11-19T01:08:12;-8.90;99.90
14798;DHT22;7490;63.708;20.368;2023-11-19T01:10:38;-9.00;99.90
14798;DHT22;7490;63.708;20.368;2023-11-19T01:13:04;-9.00;99.90
14798;DHT22;7490;63.708;20.368;2023-11-19T01:15:32;-9.00;99.90
14798;DHT22;7490;63.708;20.368;2023-11-19T01:17:58;-9.00;99.90
14798;DHT22;7490;63.708;20.368;2023-11-19T01:20:24;-9.00;99.90
14798;DHT22;7490;63.708;20.368;2023-11-19T01:22:50;-9.00;99.90
14798;DHT22;7490;63.708;20.368;2023-11-19T01:25:16;-9.10;99.90
14798;DHT22;7490;63.708;20.368;2023-11-19T01:27:42;-9.10;99.90
14798;DHT22;7490;63.708;20.368;2023-11-19T01:30:08;-9.10;99.90
14798;DHT22;7490;63.708;20.368;2023-11-19T01:32:39;-9.20;99.90
14798;DHT22;7490;63.708;20.368;2023-11-19T01:35:05;-9.20;99.90
14798;DHT22;7490;63.708;20.368;2023-11-19T01:37:31;-9.20;99.90
14798;DHT22;7490;63.708;20.368;2023-11-19T01:39:57;-9.20;99.90
14798;DHT22;7490;63.708;20.368;2023-11-19T01:42:23;-9.30;99.90
14798;DHT22;7490;63.708;20.368;2023-11-19T01:45:00;-9.30;99.90
14798;DHT22;7490;63.708;20.368;2023-11-19T01:47:27;-9.30;99.90
14798;DHT22;7490;63.708;20.368;2023-11-19T01:49:54;-9.40;99.90
14798;DHT22;7490;63.708;20.368;2023-11-19T01:52:22;-9.40;99.90
14798;DHT22;7490;63.708;20.368;2023-11-19T01:54:49;-9.40;99.90
14798;DHT22;7490;63.708;20.368;2023-11-19T01:57:15;-9.40;99.90
14798;DHT22;7490;63.708;20.368;2023-11-19T01:59:40;-9.40;99.90
14798;DHT22;7490;63.708;20.368;2023-11-19T02:02:07;-9.40;99.90
14798;DHT22;7490;63.708;20.368;2023-11-19T02:04:33;-9.40;99.90
14798;DHT22;7490;63.708;20.368;2023-11-19T02:07:00;-9.40;99.90
14798;DHT22;7490;63.708;20.368;2023-11-19T02:09:26;-9.40;99.90
14798;DHT22;7490;63.708;20.368;2023-11-19T02:11:52;-9.40;99.90
14798;DHT22;7490;63.708;20.368;2023-11-19T02:14:21;-9.50;99.90
14798;DHT22;7490;63.708;20.368;2023-11-19T02:16:49;-9.50;99.90
14798;DHT22;7490;63.708;20.368;2023-11-19T02:19:15;-9.50;99.90
14798;DHT22;7490;63.708;20.368;2023-11-19T02:21:40;-9.40;99.90
14798;DHT22;7490;63.708;20.368;2023-11-19T02:24:08;-9.50;99.90
14798;DHT22;7490;63.708;20.368;2023-11-19T02:29:09;-9.40;99.90
14798;DHT22;7490;63.708;20.368;2023-11-19T02:31:35;-9.40;99.90
14798;DHT22;7490;63.708;20.368;2023-11-19T02:34:01;-9.40;99.90
14798;DHT22;7490;63.708;20.368;2023-11-19T02:36:27;-9.40;99.90
14798;DHT22;7490;63.708;20.368;2023-11-19T02:38:53;-9.40;99.90
14798;DHT22;7490;63.708;20.368;2023-11-19T02:41:19;-9.50;99.90
14798;DHT22;7490;63.708;20.368;2023-11-19T02:43:45;-9.50;99.90
14798;DHT22;7490;63.708;20.368;2023-11-19T02:46:12;-9.50;99.90
14798;DHT22;7490;63.708;20.368;2023-11-19T02:48:37;-9.50;99.90
14798;DHT22;7490;63.708;20.368;2023-11-19T02:51:04;-9.40;99.90
14798;DHT22;7490;63.708;20.368;2023-11-19T02:53:30;-9.40;99.90
14798;DHT22;7490;63.708;20.368;2023-11-19T02:55:57;-9.40;99.90
14798;DHT22;7490;63.708;20.368;2023-11-19T02:58:43;-9.40;99.90
14798;DHT22;7490;63.708;20.368;2023-11-19T03:01:10;-9.40;99.90
14798;DHT22;7490;63.708;20.368;2023-11-19T03:03:44;-9.40;99.90
14798;DHT22;7490;63.708;20.368;2023-11-19T03:06:14;-9.40;99.90
14798;DHT22;7490;63.708;20.368;2023-11-19T03:08:40;-9.40;99.90
14798;DHT22;7490;63.708;20.368;2023-11-19T03:11:05;-9.30;99.90
14798;DHT22;7490;63.708;20.368;2023-11-19T03:13:31;-9.20;99.90
14798;DHT22;7490;63.708;20.368;2023-11-19T03:15:57;-9.20;99.90
14798;DHT22;7490;63.708;20.368;2023-11-19T03:18:22;-9.20;99.90
14798;DHT22;7490;63.708;20.368;2023-11-19T03:20:49;-9.20;99.90
14798;DHT22;7490;63.708;20.368;2023-11-19T03:23:15;-9.20;99.90
14798;DHT22;7490;63.708;20.368;2023-11-19T03:25:40;-9.20;99.90
14798;DHT22;7490;63.708;20.368;2023-11-19T03:28:06;-9.20;99.90
14798;DHT22;7490;63.708;20.368;2023-11-19T03:30:32;-9.30;99.90
14798;DHT22;7490;63.708;20.368;2023-11-19T03:32:58;-9.40;99.90
14798;DHT22;7490;63.708;20.368;2023-11-19T03:35:24;-9.40;99.90
14798;DHT22;7490;63.708;20.368;2023-11-19T03:37:53;-9.50;99.90
14798;DHT22;7490;63.708;20.368;2023-11-19T03:40:19;-9.50;99.90
14798;DHT22;7490;63.708;20.368;2023-11-19T03:42:47;-9.50;99.90
14798;DHT22;7490;63.708;20.368;2023-11-19T03:45:13;-9.50;99.90
14798;DHT22;7490;63.708;20.368;2023-11-19T03:47:39;-9.50;99.90
14798;DHT22;7490;63.708;20.368;2023-11-19T03:50:06;-9.50;99.90
14798;DHT22;7490;63.708;20.368;2023-11-19T03:52:33;-9.50;99.90
14798;DHT22;7490;63.708;20.368;2023-11-19T03:54:59;-9.50;99.90
14798;DHT22;7490;63.708;20.368;2023-11-19T03:57:24;-9.50;99.90
14798;DHT22;7490;63.708;20.368;2023-11-19T03:59:50;-9.50;99.90
14798;DHT22;7490;63.708;20.368;2023-11-19T04:02:16;-9.50;99.90
14798;DHT22;7490;63.708;20.368;2023-11-19T04:04:42;-9.50;99.90
14798;DHT22;7490;63.708;20.368;2023-11-19T04:07:08;-9.50;99.90
14798;DHT22;7490;63.708;20.368;2023-11-19T04:09:34;-9.50;99.90
14798;DHT22;7490;63.708;20.368;2023-11-19T04:12:00;-9.50;99.90
14798;DHT22;7490;63.708;20.368;2023-11-19T04:14:26;-9.60;99.90
14798;DHT22;7490;63.708;20.368;2023-11-19T04:16:52;-9.60;99.90
14798;DHT22;7490;63.708;20.368;2023-11-19T04:19:19;-9.60;99.90
14798;DHT22;7490;63.708;20.368;2023-11-19T04:21:45;-9.50;99.90
14798;DHT22;7490;63.708;20.368;2023-11-19T04:24:11;-9.50;99.90
14798;DHT22;7490;63.708;20.368;2023-11-19T04:26:43;-9.50;99.90
14798;DHT22;7490;63.708;20.368;2023-11-19T04:29:15;-9.50;99.90
14798;DHT22;7490;63.708;20.368;2023-11-19T04:31:43;-9.50;99.90
14798;DHT22;7490;63.708;20.368;2023-11-19T04:34:09;-9.50;99.90
14798;DHT22;7490;63.708;20.368;2023-11-19T04:36:36;-9.50;99.90
14798;DHT22;7490;63.708;20.368;2023-11-19T04:39:03;-9.40;99.90
14798;DHT22;7490;63.708;20.368;2023-11-19T04:41:46;-9.40;99.90
14798;DHT22;7490;63.708;20.368;2023-11-19T04:44:12;-9.40;99.90
14798;DHT22;7490;63.708;20.368;2023-11-19T04:46:38;-9.40;99.90
14798;DHT22;7490;63.708;20.368;2023-11-19T04:49:03;-9.30;99.90
14798;DHT22;7490;63.708;20.368;2023-11-19T04:51:30;-9.30;99.90
14798;DHT22;7490;63.708;20.368;2023-11-19T04:53:55;-9.30;99.90
14798;DHT22;7490;63.708;20.368;2023-11-19T04:56:21;-9.20;99.90
14798;DHT22;7490;63.708;20.368;2023-11-19T04:58:48;-9.20;99.90
14798;DHT22;7490;63.708;20.368;2023-11-19T05:01:14;-9.20;99.90
14798;DHT22;7490;63.708;20.368;2023-11-19T05:03:43;-9.20;99.90
14798;DHT22;7490;63.708;20.368;2023-11-19T05:06:09;-9.20;99.90
14798;DHT22;7490;63.708;20.368;2023-11-19T05:08:35;-9.30;99.90
14798;DHT22;7490;63.708;20.368;2023-11-19T05:11:01;-9.30;99.90
14798;DHT22;7490;63.708;20.368;2023-11-19T05:13:26;-9.40;99.90
14798;DHT22;7490;63.708;20.368;2023-11-19T05:15:52;-9.50;99.90
14798;DHT22;7490;63.708;20.368;2023-11-19T05:18:18;-9.50;99.90
14798;DHT22;7490;63.708;20.368;2023-11-19T05:20:44;-9.60;99.90
14798;DHT22;7490;63.708;20.368;2023-11-19T05:23:10;-9.60;99.90
14798;DHT22;7490;63.708;20.368;2023-11-19T05:25:37;-9.70;99.90
14798;DHT22;7490;63.708;20.368;2023-11-19T05:28:02;-9.70;99.90
14798;DHT22;7490;63.708;20.368;2023-11-19T05:30:28;-9.70;99.90
14798;DHT22;7490;63.708;20.368;2023-11-19T05:32:54;-9.70;99.90
14798;DHT22;7490;63.708;20.368;2023-11-19T05:35:19;-9.60;99.90
14798;DHT22;7490;63.708;20.368;2023-11-19T05:37:45;-9.70;99.90
14798;DHT22;7490;63.708;20.368;2023-11-19T05:40:10;-9.60;99.90
14798;DHT22;7490;63.708;20.368;2023-11-19T05:42:43;-9.60;99.90
14798;DHT22;7490;63.708;20.368;2023-11-19T05:45:11;-9.60;99.90
14798;DHT22;7490;63.708;20.368;2023-11-19T05:47:37;-9.60;99.90
14798;DHT22;7490;63.708;20.368;2023-11-19T05:50:03;-9.70;99.90
14798;DHT22;7490;63.708;20.368;2023-11-19T05:52:31;-9.70;99.90
14798;DHT22;7490;63.708;20.368;2023-11-19T05:55:00;-9.70;99.90
14798;DHT22;7490;63.708;20.368;2023-11-19T05:57:29;-9.80;99.90
14798;DHT22;7490;63.708;20.368;2023-11-19T05:59:54;-9.80;99.90
14798;DHT22;7490;63.708;20.368;2023-11-19T06:02:20;-9.80;99.90
14798;DHT22;7490;63.708;20.368;2023-11-19T06:04:46;-9.80;99.90
14798;DHT22;7490;63.708;20.368;2023-11-19T06:07:13;-9.90;99.90
14798;DHT22;7490;63.708;20.368;2023-11-19T06:09:40;-9.90;99.90
14798;DHT22;7490;63.708;20.368;2023-11-19T06:12:06;-10.00;99.90
14798;DHT22;7490;63.708;20.368;2023-11-19T06:14:32;-10.00;99.90
14798;DHT22;7490;63.708;20.368;2023-11-19T06:16:58;-10.10;99.90
14798;DHT22;7490;63.708;20.368;2023-11-19T06:19:24;-10.00;99.90
14798;DHT22;7490;63.708;20.368;2023-11-19T06:21:52;-10.10;99.90
14798;DHT22;7490;63.708;20.368;2023-11-19T06:24:18;-10.10;99.90
14798;DHT22;7490;63.708;20.368;2023-11-19T06:26:43;-10.10;99.90
14798;DHT22;7490;63.708;20.368;2023-11-19T06:29:09;-10.10;99.90
14798;DHT22;7490;63.708;20.368;2023-11-19T06:31:35;-10.10;99.90
14798;DHT22;7490;63.708;20.368;2023-11-19T06:34:00;-10.10;99.90
14798;DHT22;7490;63.708;20.368;2023-11-19T06:36:26;-10.10;99.90
14798;DHT22;7490;63.708;20.368;2023-11-19T06:38:52;-10.10;99.90
14798;DHT22;7490;63.708;20.368;2023-11-19T06:41:17;-10.10;99.90
14798;DHT22;7490;63.708;20.368;2023-11-19T06:43:43;-10.10;99.90
14798;DHT22;7490;63.708;20.368;2023-11-19T06:46:16;-10.00;99.90
14798;DHT22;7490;63.708;20.368;2023-11-19T06:48:41;-9.90;99.90
14798;DHT22;7490;63.708;20.368;2023-11-19T06:51:09;-9.80;99.90
14798;DHT22;7490;63.708;20.368;2023-11-19T06:53:35;-9.60;99.90
14798;DHT22;7490;63.708;20.368;2023-11-19T06:56:01;-9.50;99.90
14798;DHT22;7490;63.708;20.368;2023-11-19T06:58:37;-9.20;99.90
14798;DHT22;7490;63.708;20.368;2023-11-19T07:01:06;-8.90;99.90
14798;DHT22;7490;63.708;20.368;2023-11-19T07:03:32;-8.60;99.90
14798;DHT22;7490;63.708;20.368;2023-11-19T07:05:57;-8.30;99.90
14798;DHT22;7490;63.708;20.368;2023-11-19T07:08:23;-8.10;99.90
14798;DHT22;7490;63.708;20.368;2023-11-19T07:10:48;-7.80;99.90
14798;DHT22;7490;63.708;20.368;2023-11-19T07:13:14;-7.60;99.90
14798;DHT22;7490;63.708;20.368;2023-11-19T07:15:40;-7.30;99.90
14798;DHT22;7490;63.708;20.368;2023-11-19T07:18:06;-7.10;99.90
14798;DHT22;7490;63.708;20.368;2023-11-19T07:20:31;-6.90;99.90
14798;DHT22;7490;63.708;20.368;2023-11-19T07:22:58;-6.60;99.90
14798;DHT22;7490;63.708;20.368;2023-11-19T07:25:24;-6.40;99.90
14798;DHT22;7490;63.708;20.368;2023-11-19T07:27:51;-6.20;99.90
14798;DHT22;7490;63.708;20.368;2023-11-19T07:30:17;-5.90;99.90
14798;DHT22;7490;63.708;20.368;2023-11-19T07:32:43;-5.80;99.90
14798;DHT22;7490;63.708;20.368;2023-11-19T07:35:09;-5.50;99.90
14798;DHT22;7490;63.708;20.368;2023-11-19T07:37:34;-5.40;99.90
14798;DHT22;7490;63.708;20.368;2023-11-19T07:40:00;-5.20;99.90
14798;DHT22;7490;63.708;20.368;2023-11-19T07:42:26;-5.10;99.90
14798;DHT22;7490;63.708;20.368;2023-11-19T07:44:51;-5.00;99.90
14798;DHT22;7490;63.708;20.368;2023-11-19T07:47:17;-4.90;99.90
14798;DHT22;7490;63.708;20.368;2023-11-19T07:49:42;-4.70;99.90
14798;DHT22;7490;63.708;20.368;2023-11-19T07:52:09;-4.60;99.90
14798;DHT22;7490;63.708;20.368;2023-11-19T07:54:35;-4.50;99.90
14798;DHT22;7490;63.708;20.368;2023-11-19T07:57:00;-4.40;99.90
14798;DHT22;7490;63.708;20.368;2023-11-19T07:59:26;-4.30;99.90
14798;DHT22;7490;63.708;20.368;2023-11-19T08:01:52;-4.20;99.90
14798;DHT22;7490;63.708;20.368;2023-11-19T08:04:18;-4.10;99.90
14798;DHT22;7490;63.708;20.368;2023-11-19T08:06:43;-4.00;99.90
14798;DHT22;7490;63.708;20.368;2023-11-19T08:09:09;-3.90;99.90
14798;DHT22;7490;63.708;20.368;2023-11-19T08:11:42;-3.80;99.90
14798;DHT22;7490;63.708;20.368;2023-11-19T08:14:08;-3.80;99.90
14798;DHT22;7490;63.708;20.368;2023-11-19T08:16:33;-3.70;99.90
14798;DHT22;7490;63.708;20.368;2023-11-19T08:18:59;-3.70;99.90
14798;DHT22;7490;63.708;20.368;2023-11-19T08:21:25;-3.60;99.90
14798;DHT22;7490;63.708;20.368;2023-11-19T08:23:52;-3.50;99.90
14798;DHT22;7490;63.708;20.368;2023-11-19T08:26:18;-3.50;99.90
14798;DHT22;7490;63.708;20.368;2023-11-19T08:28:43;-3.40;99.90
14798;DHT22;7490;63.708;20.368;2023-11-19T08:31:09;-3.40;99.90
14798;DHT22;7490;63.708;20.368;2023-11-19T08:33:35;-3.30;99.90
14798;DHT22;7490;63.708;20.368;2023-11-19T08:36:01;-3.30;99.90
14798;DHT22;7490;63.708;20.368;2023-11-19T08:38:27;-3.10;99.90
14798;DHT22;7490;63.708;20.368;2023-11-19T08:40:53;-3.10;99.90
14798;DHT22;7490;63.708;20.368;2023-11-19T08:43:18;-3.00;99.90
14798;DHT22;7490;63.708;20.368;2023-11-19T08:45:44;-2.90;99.90
14798;DHT22;7490;63.708;20.368;2023-11-19T08:48:09;-2.90;99.90
14798;DHT22;7490;63.708;20.368;2023-11-19T08:50:35;-2.80;99.90
14798;DHT22;7490;63.708;20.368;2023-11-19T08:53:01;-2.80;99.90
14798;DHT22;7490;63.708;20.368;2023-11-19T08:55:26;-2.70;99.90
14798;DHT22;7490;63.708;20.368;2023-11-19T08:57:52;-2.70;99.90
14798;DHT22;7490;63.708;20.368;2023-11-19T09:00:18;-2.60;99.90
14798;DHT22;7490;63.708;20.368;2023-11-19T09:02:43;-2.60;99.90
14798;DHT22;7490;63.708;20.368;2023-11-19T09:05:09;-2.50;99.90
14798;DHT22;7490;63.708;20.368;2023-11-19T09:07:35;-2.50;99.90
14798;DHT22;7490;63.708;20.368;2023-11-19T09:10:01;-2.40;99.90
14798;DHT22;7490;63.708;20.368;2023-11-19T09:12:27;-2.40;99.90
14798;DHT22;7490;63.708;20.368;2023-11-19T09:14:52;-2.30;99.90
14798;DHT22;7490;63.708;20.368;2023-11-19T09:17:18;-2.20;99.90
14798;DHT22;7490;63.708;20.368;2023-11-19T09:19:44;-2.20;99.90
14798;DHT22;7490;63.708;20.368;2023-11-19T09:22:10;-2.10;99.90
14798;DHT22;7490;63.708;20.368;2023-11-19T09:24:35;-2.10;99.90
14798;DHT22;7490;63.708;20.368;2023-11-19T09:27:01;-2.00;99.90
14798;DHT22;7490;63.708;20.368;2023-11-19T09:29:26;-2.00;99.90
14798;DHT22;7490;63.708;20.368;2023-11-19T09:31:52;-2.00;99.90
14798;DHT22;7490;63.708;20.368;2023-11-19T09:34:18;-1.90;99.90
14798;DHT22;7490;63.708;20.368;2023-11-19T09:36:43;-1.90;99.90
14798;DHT22;7490;63.708;20.368;2023-11-19T09:39:13;-2.00;99.90
14798;DHT22;7490;63.708;20.368;2023-11-19T09:41:40;-2.00;99.90
14798;DHT22;7490;63.708;20.368;2023-11-19T09:44:08;-2.00;99.90
14798;DHT22;7490;63.708;20.368;2023-11-19T09:46:35;-2.00;99.90
14798;DHT22;7490;63.708;20.368;2023-11-19T09:49:02;-1.90;99.90
14798;DHT22;7490;63.708;20.368;2023-11-19T09:51:30;-1.90;99.90
14798;DHT22;7490;63.708;20.368;2023-11-19T09:53:55;-1.80;99.90
14798;DHT22;7490;63.708;20.368;2023-11-19T09:56:22;-1.80;99.90
14798;DHT22;7490;63.708;20.368;2023-11-19T09:58:48;-1.80;99.90
14798;DHT22;7490;63.708;20.368;2023-11-19T10:01:14;-1.80;99.90
14798;DHT22;7490;63.708;20.368;2023-11-19T10:03:42;-1.70;99.90
14798;DHT22;7490;63.708;20.368;2023-11-19T10:06:11;-1.60;99.90
14798;DHT22;7490;63.708;20.368;2023-11-19T10:08:38;-1.70;99.90
14798;DHT22;7490;63.708;20.368;2023-11-19T10:11:08;-1.70;99.90
14798;DHT22;7490;63.708;20.368;2023-11-19T10:13:37;-1.70;99.90
14798;DHT22;7490;63.708;20.368;2023-11-19T10:16:11;-1.60;99.90
14798;DHT22;7490;63.708;20.368;2023-11-19T10:18:47;-1.50;99.90
14798;DHT22;7490;63.708;20.368;2023-11-19T10:21:14;-1.50;99.90
14798;DHT22;7490;63.708;20.368;2023-11-19T10:23:53;-1.50;99.90
14798;DHT22;7490;63.708;20.368;2023-11-19T10:26:22;-1.40;99.90
14798;DHT22;7490;63.708;20.368;2023-11-19T10:28:48;-1.40;99.90
14798;DHT22;7490;63.708;20.368;2023-11-19T10:31:19;-1.40;99.90
14798;DHT22;7490;63.708;20.368;2023-11-19T10:33:46;-1.30;99.90
14798;DHT22;7490;63.708;20.368;2023-11-19T10:36:13;-1.30;99.90
14798;DHT22;7490;63.708;20.368;2023-11-19T10:38:39;-1.20;99.90
14798;DHT22;7490;63.708;20.368;2023-11-19T10:41:06;-1.20;99.90
14798;DHT22;7490;63.708;20.368;2023-11-19T10:43:43;-1.20;99.90
14798;DHT22;7490;63.708;20.368;2023-11-19T10:46:14;-1.10;99.90
14798;DHT22;7490;63.708;20.368;2023-11-19T10:48:40;-1.20;99.90
14798;DHT22;7490;63.708;20.368;2023-11-19T10:51:07;-1.20;99.90
14798;DHT22;7490;63.708;20.368;2023-11-19T10:53:37;-1.20;99.90
14798;DHT22;7490;63.708;20.368;2023-11-19T10:56:11;-1.20;99.90
14798;DHT22;7490;63.708;20.368;2023-11-19T10:58:41;-1.20;99.90
14798;DHT22;7490;63.708;20.368;2023-11-19T11:01:13;-1.30;99.90
14798;DHT22;7490;63.708;20.368;2023-11-19T11:03:42;-1.30;99.90
14798;DHT22;7490;63.708;20.368;2023-11-19T11:06:13;-1.30;99.90
14798;DHT22;7490;63.708;20.368;2023-11-19T11:08:39;-1.20;99.90
14798;DHT22;7490;63.708;20.368;2023-11-19T11:11:05;-1.20;99.90
14798;DHT22;7490;63.708;20.368;2023-11-19T11:13:33;-1.20;99.90
14798;DHT22;7490;63.708;20.368;2023-11-19T11:16:00;-1.20;99.90
14798;DHT22;7490;63.708;20.368;2023-11-19T11:18:26;-1.10;99.90
14798;DHT22;7490;63.708;20.368;2023-11-19T11:21:22;-1.10;99.90
14798;DHT22;7490;63.708;20.368;2023-11-19T11:24:26;-1.10;99.90
14798;DHT22;7490;63.708;20.368;2023-11-19T11:29:48;-1.10;99.90
14798;DHT22;7490;63.708;20.368;2023-11-19T11:37:56;-1.00;99.90
14798;DHT22;7490;63.708;20.368;2023-11-19T11:40:24;-1.10;99.90
14798;DHT22;7490;63.708;20.368;2023-11-19T11:42:52;-1.10;99.90
14798;DHT22;7490;63.708;20.368;2023-11-19T11:45:18;-1.10;99.90
14798;DHT22;7490;63.708;20.368;2023-11-19T11:50:20;-1.00;99.90
14798;DHT22;7490;63.708;20.368;2023-11-19T11:58:13;-1.00;99.90
14798;DHT22;7490;63.708;20.368;2023-11-19T12:00:40;-1.10;99.90
14798;DHT22;7490;63.708;20.368;2023-11-19T12:03:08;-1.10;99.90
14798;DHT22;7490;63.708;20.368;2023-11-19T12:05:41;-1.10;99.90
14798;DHT22;7490;63.708;20.368;2023-11-19T12:08:11;-1.10;99.90
14798;DHT22;7490;63.708;20.368;2023-11-19T12:10:47;-1.20;99.90
14798;DHT22;7490;63.708;20.368;2023-11-19T12:13:14;-1.10;99.90
14798;DHT22;7490;63.708;20.368;2023-11-19T12:18:26;-1.20;99.90
14798;DHT22;7490;63.708;20.368;2023-11-19T12:20:52;-1.20;99.90
14798;DHT22;7490;63.708;20.368;2023-11-19T12:23:18;-1.20;99.90
14798;DHT22;7490;63.708;20.368;2023-11-19T12:25:44;-1.20;99.90
14798;DHT22;7490;63.708;20.368;2023-11-19T12:28:15;-1.20;99.90
14798;DHT22;7490;63.708;20.368;2023-11-19T12:30:45;-1.20;99.90
14798;DHT22;7490;63.708;20.368;2023-11-19T12:33:12;-1.20;99.90
14798;DHT22;7490;63.708;20.368;2023-11-19T12:35:46;-1.20;99.90
14798;DHT22;7490;63.708;20.368;2023-11-19T12:38:23;-1.20;99.90
14798;DHT22;7490;63.708;20.368;2023-11-19T12:41:09;-1.20;99.90
14798;DHT22;7490;63.708;20.368;2023-11-19T12:43:37;-1.30;99.90
14798;DHT22;7490;63.708;20.368;2023-11-19T12:46:23;-1.30;99.90
14798;DHT22;7490;63.708;20.368;2023-11-19T12:48:49;-1.20;99.90
14798;DHT22;7490;63.708;20.368;2023-11-19T12:51:16;-1.30;99.90
14798;DHT22;7490;63.708;20.368;2023-11-19T12:53:52;-1.30;99.90
14798;DHT22;7490;63.708;20.368;2023-11-19T12:56:21;-1.20;99.90
14798;DHT22;7490;63.708;20.368;2023-11-19T12:58:47;-1.30;99.90
14798;DHT22;7490;63.708;20.368;2023-11-19T13:01:20;-1.30;99.90
14798;DHT22;7490;63.708;20.368;2023-11-19T13:03:46;-1.30;99.90
14798;DHT22;7490;63.708;20.368;2023-11-19T13:06:13;-1.30;99.90
14798;DHT22;7490;63.708;20.368;2023-11-19T13:08:47;-1.40;99.90
14798;DHT22;7490;63.708;20.368;2023-11-19T13:11:32;-1.40;99.90
14798;DHT22;7490;63.708;20.368;2023-11-19T13:14:02;-1.40;99.90
14798;DHT22;7490;63.708;20.368;2023-11-19T13:16:30;-1.40;99.90
14798;DHT22;7490;63.708;20.368;2023-11-19T13:18:56;-1.40;99.90
14798;DHT22;7490;63.708;20.368;2023-11-19T13:21:23;-1.40;99.90
14798;DHT22;7490;63.708;20.368;2023-11-19T13:23:49;-1.40;99.90
14798;DHT22;7490;63.708;20.368;2023-11-19T13:26:14;-1.50;99.90
14798;DHT22;7490;63.708;20.368;2023-11-19T13:28:40;-1.50;99.90
14798;DHT22;7490;63.708;20.368;2023-11-19T13:31:06;-1.50;99.90
14798;DHT22;7490;63.708;20.368;2023-11-19T13:33:31;-1.50;99.90
14798;DHT22;7490;63.708;20.368;2023-11-19T13:35:57;-1.50;99.90
14798;DHT22;7490;63.708;20.368;2023-11-19T13:38:23;-1.60;99.90
14798;DHT22;7490;63.708;20.368;2023-11-19T13:40:49;-1.50;99.90
14798;DHT22;7490;63.708;20.368;2023-11-19T13:43:15;-1.50;99.90
14798;DHT22;7490;63.708;20.368;2023-11-19T13:45:41;-1.40;99.90
14798;DHT22;7490;63.708;20.368;2023-11-19T13:48:06;-1.50;99.90
14798;DHT22;7490;63.708;20.368;2023-11-19T13:50:32;-1.40;99.90
14798;DHT22;7490;63.708;20.368;2023-11-19T13:52:59;-1.40;99.90
14798;DHT22;7490;63.708;20.368;2023-11-19T13:55:25;-1.40;99.90
14798;DHT22;7490;63.708;20.368;2023-11-19T13:57:51;-1.40;99.90
14798;DHT22;7490;63.708;20.368;2023-11-19T14:00:17;-1.40;99.90
14798;DHT22;7490;63.708;20.368;2023-11-19T14:02:45;-1.40;99.90
14798;DHT22;7490;63.708;20.368;2023-11-19T14:05:12;-1.50;99.90
14798;DHT22;7490;63.708;20.368;2023-11-19T14:07:38;-1.50;99.90
14798;DHT22;7490;63.708;20.368;2023-11-19T14:10:05;-1.50;99.90
14798;DHT22;7490;63.708;20.368;2023-11-19T14:12:32;-1.60;99.90
14798;DHT22;7490;63.708;20.368;2023-11-19T14:14:58;-1.60;99.90
14798;DHT22;7490;63.708;20.368;2023-11-19T14:17:24;-1.60;99.90
14798;DHT22;7490;63.708;20.368;2023-11-19T14:19:50;-1.60;99.90
14798;DHT22;7490;63.708;20.368;2023-11-19T14:22:16;-1.60;99.90
14798;DHT22;7490;63.708;20.368;2023-11-19T14:24:42;-1.60;99.90
14798;DHT22;7490;63.708;20.368;2023-11-19T14:27:09;-1.60;99.90
14798;DHT22;7490;63.708;20.368;2023-11-19T14:29:35;-1.70;99.90
14798;DHT22;7490;63.708;20.368;2023-11-19T14:32:01;-1.70;99.90
14798;DHT22;7490;63.708;20.368;2023-11-19T14:34:31;-1.70;99.90
14798;DHT22;7490;63.708;20.368;2023-11-19T14:36:57;-1.60;99.90
14798;DHT22;7490;63.708;20.368;2023-11-19T14:39:24;-1.70;99.90
14798;DHT22;7490;63.708;20.368;2023-11-19T14:41:49;-1.60;99.90
14798;DHT22;7490;63.708;20.368;2023-11-19T14:44:16;-1.70;99.90
14798;DHT22;7490;63.708;20.368;2023-11-19T14:46:42;-1.70;99.90
14798;DHT22;7490;63.708;20.368;2023-11-19T14:49:07;-1.70;99.90
14798;DHT22;7490;63.708;20.368;2023-11-19T14:51:39;-1.80;99.90
14798;DHT22;7490;63.708;20.368;2023-11-19T14:54:05;-1.70;99.90
14798;DHT22;7490;63.708;20.368;2023-11-19T14:56:31;-1.80;99.90
14798;DHT22;7490;63.708;20.368;2023-11-19T14:58:57;-1.80;99.90
14798;DHT22;7490;63.708;20.368;2023-11-19T15:01:24;-1.80;99.90
14798;DHT22;7490;63.708;20.368;2023-11-19T15:03:50;-1.80;99.90
14798;DHT22;7490;63.708;20.368;2023-11-19T15:06:16;-1.70;99.90
14798;DHT22;7490;63.708;20.368;2023-11-19T15:08:42;-1.80;99.90
14798;DHT22;7490;63.708;20.368;2023-11-19T15:11:08;-1.80;99.90
14798;DHT22;7490;63.708;20.368;2023-11-19T15:13:35;-1.70;99.90
14798;DHT22;7490;63.708;20.368;2023-11-19T15:16:04;-1.80;99.90
14798;DHT22;7490;63.708;20.368;2023-11-19T15:18:32;-1.80;99.90
14798;DHT22;7490;63.708;20.368;2023-11-19T15:20:58;-1.80;99.90
14798;DHT22;7490;63.708;20.368;2023-11-19T15:23:23;-1.70;99.90
14798;DHT22;7490;63.708;20.368;2023-11-19T15:25:49;-1.80;99.90
14798;DHT22;7490;63.708;20.368;2023-11-19T15:28:15;-1.80;99.90
14798;DHT22;7490;63.708;20.368;2023-11-19T15:30:40;-1.80;99.90
14798;DHT22;7490;63.708;20.368;2023-11-19T15:33:06;-1.80;99.90
14798;DHT22;7490;63.708;20.368;2023-11-19T15:35:34;-1.80;99.90
14798;DHT22;7490;63.708;20.368;2023-11-19T15:38:00;-1.80;99.90
14798;DHT22;7490;63.708;20.368;2023-11-19T15:40:25;-1.80;99.90
14798;DHT22;7490;63.708;20.368;2023-11-19T15:42:52;-1.80;99.90
14798;DHT22;7490;63.708;20.368;2023-11-19T15:45:20;-1.80;99.90
14798;DHT22;7490;63.708;20.368;2023-11-19T15:47:46;-1.90;99.90
14798;DHT22;7490;63.708;20.368;2023-11-19T15:50:11;-2.00;99.90
14798;DHT22;7490;63.708;20.368;2023-11-19T15:52:37;-2.00;99.90